sensor_id;sensor_type;location;lat;lon;timestamp;pressure;altitude;pressure_sealevel;temperature;humidity
33161;BME280;19522;45.656;11.302;2023-08-06T00:00:15;97264.31;;;17.65;91.86
33161;BME280;19522;45.656;11.302;2023-08-06T00:02:41;97318.41;;;17.97;92.59
33161;BME280;19522;45.656;11.302;2023-08-06T00:05:09;97280.59;;;17.76;91.68
33161;BME280;19522;45.656;11.302;2023-08-06T00:07:35;97312.41;;;18.05;91.55
33161;BME280;19522;45.656;11.302;2023-08-06T00:10:00;97234.63;;;17.56;90.63
33161;BME280;19522;45.656;11.302;2023-08-06T00:12:29;97313.50;;;18.04;90.79
33161;BME280;19522;45.656;11.302;2023-08-06T00:14:54;97255.81;;;17.66;91.70
33161;BME280;19522;45.656;11.302;2023-08-06T00:17:20;97304.06;;;17.95;91.62
33161;BME280;19522;45.656;11.302;2023-08-06T00:19:45;97310.91;;;17.92;92.08
33161;BME280;19522;45.656;11.302;2023-08-06T00:22:11;97310.06;;;17.86;93.12
33161;BME280;19522;45.656;11.302;2023-08-06T00:24:37;97311.56;;;17.72;93.89
33161;BME280;19522;45.656;11.302;2023-08-06T00:27:03;97203.81;;;17.11;94.81
33161;BME280;19522;45.656;11.302;2023-08-06T00:29:28;97301.34;;;17.62;95.11
33161;BME280;19522;45.656;11.302;2023-08-06T00:31:54;97295.09;;;17.67;94.74
33161;BME280;19522;45.656;11.302;2023-08-06T00:34:19;97292.94;;;17.74;93.16
33161;BME280;19522;45.656;11.302;2023-08-06T00:36:45;97275.59;;;17.68;93.18
33161;BME280;19522;45.656;11.302;2023-08-06T00:39:10;97286.38;;;17.80;93.38
33161;BME280;19522;45.656;11.302;2023-08-06T00:41:39;97217.19;;;17.40;92.94
33161;BME280;19522;45.656;11.302;2023-08-06T00:44:05;97251.91;;;17.57;92.53
33161;BME280;19522;45.656;11.302;2023-08-06T00:46:31;97280.63;;;17.82;92.46
33161;BME280;19522;45.656;11.302;2023-08-06T00:48:57;97290.56;;;17.88;92.61
33161;BME280;19522;45.656;11.302;2023-08-06T00:51:24;97279.00;;;17.86;92.67
33161;BME280;19522;45.656;11.302;2023-08-06T00:53:50;97288.31;;;17.85;92.19
33161;BME280;19522;45.656;11.302;2023-08-06T00:56:16;97281.06;;;17.63;93.53
33161;BME280;19522;45.656;11.302;2023-08-06T00:58:42;97206.84;;;17.15;95.45
33161;BME280;19522;45.656;11.302;2023-08-06T01:01:07;97282.63;;;17.54;96.00
33161;BME280;19522;45.656;11.302;2023-08-06T01:03:33;97276.06;;;17.55;95.60
33161;BME280;19522;45.656;11.302;2023-08-06T01:05:59;97262.56;;;17.53;95.25
33161;BME280;19522;45.656;11.302;2023-08-06T01:14:27;97190.34;;;17.10;94.11
33161;BME280;19522;45.656;11.302;2023-08-06T01:16:54;97272.53;;;17.59;93.92
33161;BME280;19522;45.656;11.302;2023-08-06T01:19:21;97227.28;;;17.29;94.06
33161;BME280;19522;45.656;11.302;2023-08-06T01:21:47;97204.66;;;17.12;94.61
33161;BME280;19522;45.656;11.302;2023-08-06T01:24:12;97242.97;;;17.39;94.53
33161;BME280;19522;45.656;11.302;2023-08-06T01:26:51;97183.69;;;17.01;93.80
33161;BME280;19522;45.656;11.302;2023-08-06T01:29:36;97257.78;;;17.38;94.43
33161;BME280;19522;45.656;11.302;2023-08-06T01:32:05;97233.25;;;17.21;93.89
33161;BME280;19522;45.656;11.302;2023-08-06T01:34:32;97262.69;;;17.31;94.18
33161;BME280;19522;45.656;11.302;2023-08-06T01:37:00;97257.22;;;17.36;94.18
33161;BME280;19522;45.656;11.302;2023-08-06T01:39:26;97250.31;;;17.28;94.74
33161;BME280;19522;45.656;11.302;2023-08-06T01:41:52;97162.13;;;16.55;95.62
33161;BME280;19522;45.656;11.302;2023-08-06T01:44:17;97254.22;;;17.05;96.94
33161;BME280;19522;45.656;11.302;2023-08-06T01:46:43;97254.81;;;17.12;97.00
33161;BME280;19522;45.656;11.302;2023-08-06T01:49:08;97249.25;;;17.02;97.90
33161;BME280;19522;45.656;11.302;2023-08-06T01:51:34;97254.44;;;16.98;98.35
33161;BME280;19522;45.656;11.302;2023-08-06T01:54:00;97243.03;;;17.12;97.61
33161;BME280;19522;45.656;11.302;2023-08-06T01:56:25;97180.06;;;16.67;97.36
33161;BME280;19522;45.656;11.302;2023-08-06T01:58:51;97201.75;;;16.96;97.38
33161;BME280;19522;45.656;11.302;2023-08-06T02:01:17;97235.66;;;17.18;96.74
33161;BME280;19522;45.656;11.302;2023-08-06T02:03:42;97230.19;;;17.18;96.43
33161;BME280;19522;45.656;11.302;2023-08-06T02:06:08;97203.34;;;16.92;96.30
33161;BME280;19522;45.656;11.302;2023-08-06T02:08:33;97147.69;;;16.64;96.21
33161;BME280;19522;45.656;11.302;2023-08-06T02:10:59;97146.41;;;16.72;95.89
33161;BME280;19522;45.656;11.302;2023-08-06T02:13:25;97229.38;;;17.22;95.73
33161;BME280;19522;45.656;11.302;2023-08-06T02:15:53;97220.13;;;17.28;95.09
33161;BME280;19522;45.656;11.302;2023-08-06T02:18:18;97225.31;;;17.25;95.03
33161;BME280;19522;45.656;11.302;2023-08-06T02:20:55;97217.63;;;17.27;94.47
33161;BME280;19522;45.656;11.302;2023-08-06T02:23:21;97147.06;;;16.85;94.13
33161;BME280;19522;45.656;11.302;2023-08-06T02:25:47;97215.25;;;17.36;94.15
33161;BME280;19522;45.656;11.302;2023-08-06T02:28:12;97215.59;;;17.44;93.96
33161;BME280;19522;45.656;11.302;2023-08-06T02:30:38;97225.72;;;17.39;94.35
33161;BME280;19522;45.656;11.302;2023-08-06T02:33:03;97224.78;;;17.28;94.83
33161;BME280;19522;45.656;11.302;2023-08-06T02:35:28;97183.94;;;16.99;95.18
33161;BME280;19522;45.656;11.302;2023-08-06T02:37:54;97223.66;;;17.24;95.14
33161;BME280;19522;45.656;11.302;2023-08-06T02:40:19;97187.63;;;17.10;94.25
33161;BME280;19522;45.656;11.302;2023-08-06T02:42:45;97165.19;;;16.91;93.97
33161;BME280;19522;45.656;11.302;2023-08-06T02:45:11;97231.13;;;17.34;93.90
33161;BME280;19522;45.656;11.302;2023-08-06T02:47:36;97164.22;;;16.97;94.22
33161;BME280;19522;45.656;11.302;2023-08-06T02:50:02;97118.97;;;16.72;94.40
33161;BME280;19522;45.656;11.302;2023-08-06T02:52:27;97098.41;;;16.70;94.76
33161;BME280;19522;45.656;11.302;2023-08-06T02:54:53;97200.66;;;17.30;95.81
33161;BME280;19522;45.656;11.302;2023-08-06T02:57:18;97170.66;;;16.86;96.36
33161;BME280;19522;45.656;11.302;2023-08-06T02:59:45;97198.38;;;17.17;96.79
33161;BME280;19522;45.656;11.302;2023-08-06T03:02:11;97192.09;;;17.21;95.74
33161;BME280;19522;45.656;11.302;2023-08-06T03:04:36;97192.03;;;17.16;95.52
33161;BME280;19522;45.656;11.302;2023-08-06T03:07:01;97187.84;;;17.08;95.47
33161;BME280;19522;45.656;11.302;2023-08-06T03:09:27;97195.00;;;17.09;95.74
33161;BME280;19522;45.656;11.302;2023-08-06T03:11:52;97200.47;;;17.09;96.13
33161;BME280;19522;45.656;11.302;2023-08-06T03:14:18;97200.47;;;17.09;96.29
33161;BME280;19522;45.656;11.302;2023-08-06T03:16:43;97160.47;;;16.81;97.37
33161;BME280;19522;45.656;11.302;2023-08-06T03:19:09;97196.88;;;17.04;97.25
33161;BME280;19522;45.656;11.302;2023-08-06T03:21:34;97184.31;;;17.08;96.75
33161;BME280;19522;45.656;11.302;2023-08-06T03:24:00;97176.16;;;17.18;95.96
33161;BME280;19522;45.656;11.302;2023-08-06T03:26:26;97166.75;;;17.09;98.02
33161;BME280;19522;45.656;11.302;2023-08-06T03:28:51;97124.53;;;16.77;98.68
33161;BME280;19522;45.656;11.302;2023-08-06T03:31:17;97166.41;;;17.00;98.64
33161;BME280;19522;45.656;11.302;2023-08-06T03:33:42;97171.94;;;17.05;98.68
33161;BME280;19522;45.656;11.302;2023-08-06T03:36:10;97151.03;;;16.99;98.27
33161;BME280;19522;45.656;11.302;2023-08-06T03:38:38;97178.47;;;16.99;99.86
33161;BME280;19522;45.656;11.302;2023-08-06T03:41:07;97183.06;;;16.93;98.59
33161;BME280;19522;45.656;11.302;2023-08-06T03:43:32;97172.44;;;16.97;98.68
33161;BME280;19522;45.656;11.302;2023-08-06T03:45:59;97167.19;;;16.95;98.43
33161;BME280;19522;45.656;11.302;2023-08-06T03:48:25;97175.47;;;17.01;97.60
33161;BME280;19522;45.656;11.302;2023-08-06T03:50:50;97198.09;;;16.91;97.94
33161;BME280;19522;45.656;11.302;2023-08-06T03:53:16;97193.59;;;16.79;99.29
33161;BME280;19522;45.656;11.302;2023-08-06T03:55:41;97153.84;;;16.22;100.00
33161;BME280;19522;45.656;11.302;2023-08-06T03:58:07;97202.88;;;16.73;100.00
33161;BME280;19522;45.656;11.302;2023-08-06T04:00:33;97196.34;;;16.79;99.38
33161;BME280;19522;45.656;11.302;2023-08-06T04:02:58;97193.66;;;16.85;99.74
33161;BME280;19522;45.656;11.302;2023-08-06T04:05:24;97204.63;;;16.85;99.55
33161;BME280;19522;45.656;11.302;2023-08-06T04:07:49;97172.94;;;16.39;100.00
33161;BME280;19522;45.656;11.302;2023-08-06T04:10:15;97216.44;;;16.35;100.00
33161;BME280;19522;45.656;11.302;2023-08-06T04:12:40;97207.97;;;16.15;100.00
33161;BME280;19522;45.656;11.302;2023-08-06T04:15:07;97203.13;;;16.44;100.00
33161;BME280;19522;45.656;11.302;2023-08-06T04:17:32;97195.78;;;16.50;99.07
33161;BME280;19522;45.656;11.302;2023-08-06T04:19:58;97200.44;;;16.49;99.20
33161;BME280;19522;45.656;11.302;2023-08-06T04:22:24;97206.44;;;16.46;99.85
33161;BME280;19522;45.656;11.302;2023-08-06T04:24:50;97189.41;;;16.44;99.67
33161;BME280;19522;45.656;11.302;2023-08-06T04:27:16;97202.44;;;16.59;98.89
33161;BME280;19522;45.656;11.302;2023-08-06T04:29:42;97208.19;;;16.58;99.14
33161;BME280;19522;45.656;11.302;2023-08-06T04:32:09;97191.06;;;16.45;98.74
33161;BME280;19522;45.656;11.302;2023-08-06T04:34:36;97204.00;;;16.50;98.52
33161;BME280;19522;45.656;11.302;2023-08-06T04:37:02;97206.53;;;16.57;98.21
33161;BME280;19522;45.656;11.302;2023-08-06T04:39:28;97203.03;;;16.61;97.40
33161;BME280;19522;45.656;11.302;2023-08-06T04:41:55;97207.06;;;16.54;97.92
33161;BME280;19522;45.656;11.302;2023-08-06T04:44:21;97205.97;;;16.55;97.53
33161;BME280;19522;45.656;11.302;2023-08-06T04:46:47;97203.38;;;16.43;98.37
33161;BME280;19522;45.656;11.302;2023-08-06T04:49:12;97204.19;;;16.43;98.43
33161;BME280;19522;45.656;11.302;2023-08-06T04:51:38;97210.94;;;16.35;98.74
33161;BME280;19522;45.656;11.302;2023-08-06T04:54:04;97200.06;;;16.41;98.69
33161;BME280;19522;45.656;11.302;2023-08-06T04:56:29;97196.25;;;16.42;98.20
33161;BME280;19522;45.656;11.302;2023-08-06T04:58:55;97204.28;;;16.48;97.85
33161;BME280;19522;45.656;11.302;2023-08-06T05:01:20;97192.22;;;16.49;97.57
33161;BME280;19522;45.656;11.302;2023-08-06T05:03:47;97199.28;;;16.45;97.47
33161;BME280;19522;45.656;11.302;2023-08-06T05:06:12;97194.31;;;16.42;97.21
33161;BME280;19522;45.656;11.302;2023-08-06T05:08:38;97180.38;;;16.44;96.80
33161;BME280;19522;45.656;11.302;2023-08-06T05:11:04;97194.38;;;16.47;96.76
33161;BME280;19522;45.656;11.302;2023-08-06T05:13:32;97199.69;;;16.32;95.66
33161;BME280;19522;45.656;11.302;2023-08-06T05:15:58;97200.75;;;16.31;95.63
33161;BME280;19522;45.656;11.302;2023-08-06T05:18:23;97195.28;;;16.31;94.79
33161;BME280;19522;45.656;11.302;2023-08-06T05:20:49;97208.22;;;16.35;94.49
33161;BME280;19522;45.656;11.302;2023-08-06T05:23:15;97206.50;;;16.29;95.90
33161;BME280;19522;45.656;11.302;2023-08-06T05:25:40;97206.78;;;16.28;97.33
33161;BME280;19522;45.656;11.302;2023-08-06T05:28:06;97195.53;;;16.29;97.45
33161;BME280;19522;45.656;11.302;2023-08-06T05:30:32;97174.13;;;16.26;97.35
33161;BME280;19522;45.656;11.302;2023-08-06T05:32:57;97188.63;;;16.49;96.70
33161;BME280;19522;45.656;11.302;2023-08-06T05:35:23;97175.00;;;16.54;95.21
33161;BME280;19522;45.656;11.302;2023-08-06T05:37:50;97185.28;;;16.69;94.19
33161;BME280;19522;45.656;11.302;2023-08-06T05:40:16;97198.13;;;16.63;94.98
33161;BME280;19522;45.656;11.302;2023-08-06T05:42:41;97190.25;;;16.72;95.55
33161;BME280;19522;45.656;11.302;2023-08-06T05:45:08;97196.63;;;16.78;94.99
33161;BME280;19522;45.656;11.302;2023-08-06T05:47:33;97192.28;;;16.82;94.55
33161;BME280;19522;45.656;11.302;2023-08-06T05:49:59;97192.28;;;16.82;94.56
33161;BME280;19522;45.656;11.302;2023-08-06T05:52:25;97195.31;;;16.86;94.45
33161;BME280;19522;45.656;11.302;2023-08-06T05:54:50;97187.13;;;16.91;95.18
33161;BME280;19522;45.656;11.302;2023-08-06T05:57:16;97168.41;;;16.82;94.34
33161;BME280;19522;45.656;11.302;2023-08-06T05:59:42;97149.22;;;16.82;93.96
33161;BME280;19522;45.656;11.302;2023-08-06T06:02:08;97169.16;;;17.00;94.71
33161;BME280;19522;45.656;11.302;2023-08-06T06:04:34;97188.22;;;17.17;93.76
33161;BME280;19522;45.656;11.302;2023-08-06T06:06:59;97173.69;;;17.17;93.22
33161;BME280;19522;45.656;11.302;2023-08-06T06:09:25;97107.75;;;16.74;93.02
33161;BME280;19522;45.656;11.302;2023-08-06T06:11:50;97194.16;;;17.41;92.57
33161;BME280;19522;45.656;11.302;2023-08-06T06:14:17;97195.81;;;17.42;90.86
33161;BME280;19522;45.656;11.302;2023-08-06T06:16:43;97193.16;;;17.53;90.25
33161;BME280;19522;45.656;11.302;2023-08-06T06:19:08;97117.72;;;17.18;90.16
33161;BME280;19522;45.656;11.302;2023-08-06T06:21:34;97149.16;;;17.42;88.40
33161;BME280;19522;45.656;11.302;2023-08-06T06:23:59;97191.88;;;17.71;90.13
33161;BME280;19522;45.656;11.302;2023-08-06T06:26:25;97193.53;;;17.72;91.27
33161;BME280;19522;45.656;11.302;2023-08-06T06:28:53;97120.38;;;17.45;90.39
33161;BME280;19522;45.656;11.302;2023-08-06T06:31:19;97194.31;;;18.10;88.93
33161;BME280;19522;45.656;11.302;2023-08-06T06:33:44;97140.66;;;17.92;88.29
33161;BME280;19522;45.656;11.302;2023-08-06T06:36:10;97133.31;;;17.98;88.25
33161;BME280;19522;45.656;11.302;2023-08-06T06:38:36;97195.59;;;18.56;87.97
33161;BME280;19522;45.656;11.302;2023-08-06T06:41:01;97167.53;;;18.53;86.89
33161;BME280;19522;45.656;11.302;2023-08-06T06:43:28;97166.72;;;18.63;85.60
33161;BME280;19522;45.656;11.302;2023-08-06T06:45:57;97195.13;;;19.05;84.06
33161;BME280;19522;45.656;11.302;2023-08-06T06:48:27;97176.69;;;19.21;81.48
33161;BME280;19522;45.656;11.302;2023-08-06T06:50:53;97200.34;;;19.58;80.38
33161;BME280;19522;45.656;11.302;2023-08-06T06:53:19;97153.00;;;19.67;79.16
33161;BME280;19522;45.656;11.302;2023-08-06T06:55:44;97202.44;;;20.18;76.59
33161;BME280;19522;45.656;11.302;2023-08-06T06:58:10;97166.00;;;20.32;75.61
33161;BME280;19522;45.656;11.302;2023-08-06T07:00:36;97203.22;;;20.84;72.14
33161;BME280;19522;45.656;11.302;2023-08-06T07:03:02;97204.41;;;21.13;68.80
33161;BME280;19522;45.656;11.302;2023-08-06T07:05:28;97202.41;;;21.24;66.81
33161;BME280;19522;45.656;11.302;2023-08-06T07:07:54;97202.88;;;21.31;67.35
33161;BME280;19522;45.656;11.302;2023-08-06T07:10:19;97196.63;;;21.55;67.85
33161;BME280;19522;45.656;11.302;2023-08-06T07:12:45;97193.03;;;21.84;68.14
33161;BME280;19522;45.656;11.302;2023-08-06T07:15:11;97181.31;;;21.97;68.30
33161;BME280;19522;45.656;11.302;2023-08-06T07:17:36;97193.06;;;22.08;68.18
33161;BME280;19522;45.656;11.302;2023-08-06T07:20:02;97172.75;;;21.93;65.18
33161;BME280;19522;45.656;11.302;2023-08-06T07:22:28;97170.81;;;21.94;66.82
33161;BME280;19522;45.656;11.302;2023-08-06T07:24:54;97188.28;;;22.14;67.98
33161;BME280;19522;45.656;11.302;2023-08-06T07:27:19;97150.72;;;22.13;66.65
33161;BME280;19522;45.656;11.302;2023-08-06T07:29:45;97134.47;;;22.06;66.89
33161;BME280;19522;45.656;11.302;2023-08-06T07:32:10;97141.63;;;22.31;66.20
33161;BME280;19522;45.656;11.302;2023-08-06T07:34:36;97144.81;;;22.44;67.32
33161;BME280;19522;45.656;11.302;2023-08-06T07:37:01;97168.59;;;22.45;66.47
33161;BME280;19522;45.656;11.302;2023-08-06T07:39:27;97182.50;;;22.59;64.94
33161;BME280;19522;45.656;11.302;2023-08-06T07:41:54;97195.59;;;22.72;64.36
33161;BME280;19522;45.656;11.302;2023-08-06T07:44:19;97187.88;;;22.88;64.39
33161;BME280;19522;45.656;11.302;2023-08-06T07:46:45;97172.13;;;22.88;64.49
33161;BME280;19522;45.656;11.302;2023-08-06T07:49:10;97178.53;;;23.03;63.37
33161;BME280;19522;45.656;11.302;2023-08-06T07:51:38;97187.81;;;22.93;64.86
33161;BME280;19522;45.656;11.302;2023-08-06T07:54:05;97175.84;;;22.79;65.76
33161;BME280;19522;45.656;11.302;2023-08-06T07:56:31;97203.28;;;22.94;66.70
33161;BME280;19522;45.656;11.302;2023-08-06T07:58:56;97195.28;;;22.93;64.38
33161;BME280;19522;45.656;11.302;2023-08-06T08:01:22;97165.16;;;22.91;65.09
33161;BME280;19522;45.656;11.302;2023-08-06T08:03:47;97200.81;;;23.31;65.89
33161;BME280;19522;45.656;11.302;2023-08-06T08:06:13;97144.56;;;22.97;63.74
33161;BME280;19522;45.656;11.302;2023-08-06T08:08:38;97203.03;;;23.48;62.12
33161;BME280;19522;45.656;11.302;2023-08-06T08:11:05;97206.53;;;23.54;63.30
33161;BME280;19522;45.656;11.302;2023-08-06T08:13:32;97143.19;;;23.33;62.90
33161;BME280;19522;45.656;11.302;2023-08-06T08:15:58;97200.22;;;23.81;61.23
33161;BME280;19522;45.656;11.302;2023-08-06T08:18:24;97197.75;;;23.65;61.26
33161;BME280;19522;45.656;11.302;2023-08-06T08:20:50;97119.91;;;23.15;61.99
33161;BME280;19522;45.656;11.302;2023-08-06T08:23:16;97200.53;;;23.79;61.45
33161;BME280;19522;45.656;11.302;2023-08-06T08:25:41;97139.81;;;23.36;60.97
33161;BME280;19522;45.656;11.302;2023-08-06T08:28:07;97106.28;;;22.85;63.33
33161;BME280;19522;45.656;11.302;2023-08-06T08:30:33;97120.03;;;22.91;65.69
33161;BME280;19522;45.656;11.302;2023-08-06T08:32:58;97211.38;;;23.10;68.81
33161;BME280;19522;45.656;11.302;2023-08-06T08:35:24;97222.59;;;22.99;70.94
33161;BME280;19522;45.656;11.302;2023-08-06T08:37:50;97156.25;;;22.56;70.97
33161;BME280;19522;45.656;11.302;2023-08-06T08:40:16;97220.41;;;22.96;71.75
33161;BME280;19522;45.656;11.302;2023-08-06T08:42:42;97211.97;;;23.07;71.33
33161;BME280;19522;45.656;11.302;2023-08-06T08:45:15;97154.59;;;22.74;70.88
33161;BME280;19522;45.656;11.302;2023-08-06T08:47:41;97224.78;;;23.02;70.58
33161;BME280;19522;45.656;11.302;2023-08-06T08:50:08;97230.75;;;23.10;70.20
33161;BME280;19522;45.656;11.302;2023-08-06T08:52:38;97231.59;;;22.91;71.35
33161;BME280;19522;45.656;11.302;2023-08-06T08:55:06;97221.25;;;22.78;70.55
33161;BME280;19522;45.656;11.302;2023-08-06T08:57:32;97222.13;;;22.54;72.76
33161;BME280;19522;45.656;11.302;2023-08-06T08:59:58;97226.94;;;22.43;74.35
33161;BME280;19522;45.656;11.302;2023-08-06T09:02:25;97201.25;;;22.37;72.16
33161;BME280;19522;45.656;11.302;2023-08-06T09:04:53;97236.94;;;22.63;72.46
33161;BME280;19522;45.656;11.302;2023-08-06T09:07:21;97241.72;;;22.77;73.36
33161;BME280;19522;45.656;11.302;2023-08-06T09:09:49;97237.66;;;22.93;73.74
33161;BME280;19522;45.656;11.302;2023-08-06T09:12:16;97241.66;;;23.01;74.14
33161;BME280;19522;45.656;11.302;2023-08-06T09:14:42;97224.16;;;23.06;69.78
33161;BME280;19522;45.656;11.302;2023-08-06T09:17:08;97235.06;;;23.21;72.43
33161;BME280;19522;45.656;11.302;2023-08-06T09:19:36;97242.63;;;23.10;71.50
33161;BME280;19522;45.656;11.302;2023-08-06T09:22:02;97247.06;;;23.11;71.62
33161;BME280;19522;45.656;11.302;2023-08-06T09:24:28;97230.81;;;23.04;71.79
33161;BME280;19522;45.656;11.302;2023-08-06T09:26:54;97243.53;;;23.06;72.08
33161;BME280;19522;45.656;11.302;2023-08-06T09:29:20;97242.34;;;23.12;70.88
33161;BME280;19522;45.656;11.302;2023-08-06T09:31:52;97241.25;;;23.13;71.75
33161;BME280;19522;45.656;11.302;2023-08-06T09:34:22;97260.47;;;23.23;71.86
33161;BME280;19522;45.656;11.302;2023-08-06T09:36:53;97257.47;;;23.00;70.70
33161;BME280;19522;45.656;11.302;2023-08-06T09:39:20;97260.44;;;22.85;70.56
33161;BME280;19522;45.656;11.302;2023-08-06T09:41:47;97197.16;;;22.35;72.11
33161;BME280;19522;45.656;11.302;2023-08-06T09:44:17;97270.63;;;22.46;74.24
33161;BME280;19522;45.656;11.302;2023-08-06T09:46:50;97269.53;;;22.42;74.13
33161;BME280;19522;45.656;11.302;2023-08-06T09:49:22;97263.75;;;22.44;75.09
33161;BME280;19522;45.656;11.302;2023-08-06T09:51:47;97265.19;;;22.60;75.56
33161;BME280;19522;45.656;11.302;2023-08-06T09:54:17;97255.19;;;22.83;74.77
33161;BME280;19522;45.656;11.302;2023-08-06T09:56:44;97252.00;;;22.95;73.09
33161;BME280;19522;45.656;11.302;2023-08-06T09:59:10;97214.81;;;23.01;74.05
33161;BME280;19522;45.656;11.302;2023-08-06T10:01:38;97255.25;;;23.41;69.09
33161;BME280;19522;45.656;11.302;2023-08-06T10:04:05;97249.06;;;23.63;70.18
33161;BME280;19522;45.656;11.302;2023-08-06T10:06:36;97245.75;;;23.94;71.60
33161;BME280;19522;45.656;11.302;2023-08-06T10:09:02;97135.78;;;23.28;68.65
33161;BME280;19522;45.656;11.302;2023-08-06T10:11:29;97244.06;;;23.79;68.47
33161;BME280;19522;45.656;11.302;2023-08-06T10:14:06;97250.63;;;23.83;69.63
33161;BME280;19522;45.656;11.302;2023-08-06T10:16:34;97241.06;;;24.08;72.08
33161;BME280;19522;45.656;11.302;2023-08-06T10:19:01;97223.00;;;24.25;68.67
33161;BME280;19522;45.656;11.302;2023-08-06T10:21:27;97175.50;;;23.71;65.14
33161;BME280;19522;45.656;11.302;2023-08-06T10:23:54;97233.06;;;24.21;64.99
33161;BME280;19522;45.656;11.302;2023-08-06T10:26:29;97224.63;;;24.26;65.38
33161;BME280;19522;45.656;11.302;2023-08-06T10:28:55;97192.28;;;24.07;65.87
33161;BME280;19522;45.656;11.302;2023-08-06T10:31:53;97230.81;;;24.23;64.52
33161;BME280;19522;45.656;11.302;2023-08-06T10:34:19;97214.66;;;24.39;70.59
33161;BME280;19522;45.656;11.302;2023-08-06T10:36:45;97225.47;;;24.54;63.05
33161;BME280;19522;45.656;11.302;2023-08-06T10:39:13;97230.91;;;24.46;62.98
33161;BME280;19522;45.656;11.302;2023-08-06T10:41:42;97150.66;;;23.93;64.94
33161;BME280;19522;45.656;11.302;2023-08-06T10:44:10;97230.91;;;24.46;65.77
33161;BME280;19522;45.656;11.302;2023-08-06T10:46:36;97181.09;;;24.13;63.11
33161;BME280;19522;45.656;11.302;2023-08-06T10:49:03;97246.00;;;24.53;62.27
33161;BME280;19522;45.656;11.302;2023-08-06T10:51:29;97239.53;;;24.44;63.36
33161;BME280;19522;45.656;11.302;2023-08-06T10:53:54;97235.44;;;24.41;62.92
33161;BME280;19522;45.656;11.302;2023-08-06T10:56:22;97203.69;;;24.20;61.75
33161;BME280;19522;45.656;11.302;2023-08-06T10:58:48;97217.03;;;24.32;63.09
33161;BME280;19522;45.656;11.302;2023-08-06T11:01:15;97231.81;;;24.13;65.32
33161;BME280;19522;45.656;11.302;2023-08-06T11:03:45;97225.78;;;23.78;65.24
33161;BME280;19522;45.656;11.302;2023-08-06T11:06:19;97144.09;;;23.09;65.75
33161;BME280;19522;45.656;11.302;2023-08-06T11:08:49;97246.44;;;23.53;66.18
33161;BME280;19522;45.656;11.302;2023-08-06T11:11:16;97248.66;;;23.37;66.47
33161;BME280;19522;45.656;11.302;2023-08-06T11:13:43;97166.34;;;22.66;67.85
33161;BME280;19522;45.656;11.302;2023-08-06T11:16:19;97211.81;;;22.79;68.97
33161;BME280;19522;45.656;11.302;2023-08-06T11:18:46;97172.56;;;22.33;69.38
33161;BME280;19522;45.656;11.302;2023-08-06T11:21:12;97169.41;;;22.21;70.32
33161;BME280;19522;45.656;11.302;2023-08-06T11:23:38;97256.09;;;22.79;69.85
33161;BME280;19522;45.656;11.302;2023-08-06T11:26:04;97232.44;;;22.67;69.94
33161;BME280;19522;45.656;11.302;2023-08-06T11:28:30;97219.41;;;22.49;70.71
33161;BME280;19522;45.656;11.302;2023-08-06T11:30:55;97227.44;;;22.69;70.28
33161;BME280;19522;45.656;11.302;2023-08-06T11:33:29;97234.22;;;22.58;71.21
33161;BME280;19522;45.656;11.302;2023-08-06T11:35:57;97193.28;;;22.36;71.79
33161;BME280;19522;45.656;11.302;2023-08-06T11:38:30;97230.16;;;22.94;71.82
33161;BME280;19522;45.656;11.302;2023-08-06T11:40:56;97168.28;;;22.65;69.81
33161;BME280;19522;45.656;11.302;2023-08-06T11:43:22;97243.78;;;23.28;68.32
33161;BME280;19522;45.656;11.302;2023-08-06T11:45:51;97244.41;;;23.58;70.38
33161;BME280;19522;45.656;11.302;2023-08-06T11:48:19;97158.03;;;23.04;66.41
33161;BME280;19522;45.656;11.302;2023-08-06T11:50:45;97245.59;;;23.71;66.68
33161;BME280;19522;45.656;11.302;2023-08-06T11:53:13;97248.38;;;23.85;69.29
33161;BME280;19522;45.656;11.302;2023-08-06T11:55:40;97150.22;;;23.25;70.88
33161;BME280;19522;45.656;11.302;2023-08-06T11:58:05;97196.84;;;23.84;67.37
33161;BME280;19522;45.656;11.302;2023-08-06T12:00:31;97234.09;;;24.25;67.66
33161;BME280;19522;45.656;11.302;2023-08-06T12:02:57;97257.81;;;24.17;67.10
33161;BME280;19522;45.656;11.302;2023-08-06T12:05:24;97189.22;;;23.62;68.80
33161;BME280;19522;45.656;11.302;2023-08-06T12:07:59;97214.69;;;23.64;67.23
33161;BME280;19522;45.656;11.302;2023-08-06T12:10:26;97269.94;;;23.74;68.31
33161;BME280;19522;45.656;11.302;2023-08-06T12:12:52;97249.75;;;23.55;67.18
33161;BME280;19522;45.656;11.302;2023-08-06T12:15:17;97236.19;;;23.53;67.76
33161;BME280;19522;45.656;11.302;2023-08-06T12:17:43;97257.56;;;23.67;68.32
33161;BME280;19522;45.656;11.302;2023-08-06T12:20:10;97268.69;;;23.80;67.72
33161;BME280;19522;45.656;11.302;2023-08-06T12:22:36;97258.44;;;23.81;67.70
33161;BME280;19522;45.656;11.302;2023-08-06T12:25:06;97275.13;;;23.43;66.22
33161;BME280;19522;45.656;11.302;2023-08-06T12:27:36;97186.53;;;22.66;67.23
33161;BME280;19522;45.656;11.302;2023-08-06T12:30:03;97283.28;;;22.96;67.34
33161;BME280;19522;45.656;11.302;2023-08-06T12:32:32;97261.28;;;22.85;64.81
33161;BME280;19522;45.656;11.302;2023-08-06T12:34:58;97228.16;;;22.56;54.22
33161;BME280;19522;45.656;11.302;2023-08-06T12:37:24;97274.03;;;22.62;53.34
33161;BME280;19522;45.656;11.302;2023-08-06T12:39:50;97269.50;;;22.47;51.61
33161;BME280;19522;45.656;11.302;2023-08-06T12:42:16;97268.03;;;22.55;53.49
33161;BME280;19522;45.656;11.302;2023-08-06T12:44:41;97199.47;;;22.28;51.39
33161;BME280;19522;45.656;11.302;2023-08-06T12:47:07;97221.00;;;22.55;50.32
33161;BME280;19522;45.656;11.302;2023-08-06T12:49:33;97278.00;;;22.75;53.80
33161;BME280;19522;45.656;11.302;2023-08-06T12:51:58;97255.91;;;22.51;49.82